Terminal Aerodrome Forecast
Issued by NWS Sioux Falls, SD

Home | Current Version | Previous Version | Text Only | Print | Product List | Glossary On
Versions: 1 2 3 4 5 6 7 8 9 10 11 12 13 14 15 16 17 18 19 20 21 22 23 24 25 26 27 28 29 30 31
350
FTUS43 KFSD 252034 AAA
TAFSUX
TAF AMD
KSUX 252034Z 2521/2618 35009KT P6SM -RA OVC010
     FM260200 34008KT 5SM -RA BR OVC008
     FM260500 34006KT 5SM -SHRA BR OVC008
     FM261000 33008KT 5SM BR VCSH OVC008
     FM261500 32011KT P6SM BKN010 OVC015=

USA.gov is the U.S. government's official web portal to all federal, state and local government web resources and services.